createdAt,value
2023-04-16T00:02:14.001Z,12.27
2023-04-16T00:04:42.898Z,12.35
2023-04-16T00:07:10.989Z,12.38
2023-04-16T00:09:39.067Z,12.49
2023-04-16T00:12:07.818Z,12.50
2023-04-16T00:14:36.236Z,12.41
2023-04-16T00:17:04.844Z,12.49
2023-04-16T00:19:34.569Z,12.29
2023-04-16T00:22:02.860Z,12.26
2023-04-16T00:24:31.060Z,12.27
2023-04-16T00:26:59.133Z,12.24
2023-04-16T00:29:28.930Z,12.38
2023-04-16T00:31:57.018Z,12.42
2023-04-16T00:34:24.963Z,12.41
2023-04-16T00:36:54.269Z,12.24
2023-04-16T00:39:22.197Z,12.45
2023-04-16T00:41:50.736Z,12.49
2023-04-16T00:44:18.830Z,12.76
2023-04-16T00:46:47.390Z,12.70
2023-04-16T00:49:16.012Z,12.62
2023-04-16T00:51:44.112Z,12.54
2023-04-16T00:54:13.660Z,12.33
2023-04-16T00:56:41.784Z,12.09
2023-04-16T00:59:10.802Z,12.02
2023-04-16T01:01:38.950Z,12.39
2023-04-16T01:04:07.687Z,12.37
2023-04-16T01:06:36.533Z,12.49
2023-04-16T01:09:04.767Z,12.38
2023-04-16T01:11:34.073Z,12.48
2023-04-16T01:14:02.085Z,12.45
2023-04-16T01:16:30.243Z,12.36
2023-04-16T01:18:58.294Z,12.32
2023-04-16T01:21:27.667Z,12.24
2023-04-16T01:23:55.751Z,12.08
2023-04-16T01:26:23.743Z,12.03
2023-04-16T01:28:51.860Z,11.95
2023-04-16T01:31:19.824Z,11.88
2023-04-16T01:33:47.832Z,11.81
2023-04-16T01:36:15.798Z,11.72
2023-04-16T01:38:45.118Z,11.65
2023-04-16T01:41:13.071Z,11.54
2023-04-16T01:43:42.093Z,11.46
2023-04-16T01:46:15.954Z,11.31
2023-04-16T01:48:44.134Z,11.30
2023-04-16T01:51:12.105Z,11.22
2023-04-16T01:53:40.570Z,11.14
2023-04-16T01:56:09.951Z,11.10
2023-04-16T01:58:38.543Z,11.03
2023-04-16T02:01:06.932Z,10.89
2023-04-16T02:03:35.263Z,10.88
2023-04-16T02:06:03.270Z,10.79
2023-04-16T02:08:31.477Z,10.63
2023-04-16T02:10:59.506Z,10.58
2023-04-16T02:13:28.820Z,10.61
2023-04-16T02:15:56.767Z,10.61
2023-04-16T02:18:24.736Z,10.56
2023-04-16T02:20:52.751Z,10.45
2023-04-16T02:23:20.749Z,10.45
2023-04-16T02:25:48.946Z,10.41
2023-04-16T02:28:18.300Z,10.40
2023-04-16T02:30:47.596Z,10.33
2023-04-16T02:33:15.814Z,10.28
2023-04-16T02:35:43.971Z,10.25
2023-04-16T02:38:12.273Z,10.16
2023-04-16T02:40:40.301Z,10.03
2023-04-16T02:43:08.327Z,9.76
2023-04-16T02:45:36.391Z,9.93
2023-04-16T02:48:07.340Z,9.87
2023-04-16T02:50:35.854Z,10.03
2023-04-16T02:53:04.483Z,9.99
2023-04-16T02:55:32.503Z,10.09
2023-04-16T02:58:00.749Z,10.30
2023-04-16T03:00:28.711Z,10.50
2023-04-16T03:02:56.735Z,10.60
2023-04-16T03:05:26.334Z,10.65
2023-04-16T03:07:57.065Z,10.66
2023-04-16T03:10:26.028Z,11.08
2023-04-16T03:12:54.147Z,11.08
2023-04-16T03:15:22.356Z,11.17
2023-04-16T03:17:50.708Z,11.32
2023-04-16T03:20:19.314Z,11.50
2023-04-16T03:22:49.025Z,11.55
2023-04-16T03:25:17.199Z,11.41
2023-04-16T03:27:45.537Z,11.50
2023-04-16T03:30:14.429Z,11.71
2023-04-16T03:32:42.826Z,11.83
2023-04-16T03:35:11.414Z,11.96
2023-04-16T03:37:39.559Z,11.85
2023-04-16T03:40:10.437Z,11.90
2023-04-16T03:42:38.357Z,11.91
2023-04-16T03:45:07.127Z,11.96
2023-04-16T03:47:35.167Z,11.97
2023-04-16T03:50:03.186Z,11.89
2023-04-16T03:52:31.319Z,11.79
2023-04-16T03:55:00.129Z,11.98
2023-04-16T03:57:29.607Z,11.76
2023-04-16T03:59:57.498Z,11.94
2023-04-16T04:02:25.724Z,12.04
2023-04-16T04:04:53.838Z,12.14
2023-04-16T04:07:21.830Z,12.20
2023-04-16T04:09:49.829Z,12.22
2023-04-16T04:12:17.829Z,12.24
2023-04-16T04:14:47.293Z,12.36
2023-04-16T04:17:15.612Z,12.49
2023-04-16T04:19:54.242Z,12.43
2023-04-16T04:22:28.752Z,12.30
2023-04-16T04:24:56.789Z,12.30
2023-04-16T04:27:24.687Z,12.24
2023-04-16T04:29:54.639Z,12.42
2023-04-16T04:32:22.749Z,12.76
2023-04-16T04:34:50.718Z,12.80
2023-04-16T04:37:18.690Z,12.76
2023-04-16T04:39:46.657Z,12.91
2023-04-16T04:42:15.176Z,12.92
2023-04-16T04:44:43.240Z,13.09
2023-04-16T04:47:12.745Z,12.99
2023-04-16T04:49:40.894Z,13.15
2023-04-16T04:52:09.375Z,13.24
2023-04-16T04:54:37.395Z,13.14
2023-04-16T04:57:05.486Z,13.15
2023-04-16T04:59:33.463Z,13.03
2023-04-16T05:02:02.609Z,13.10
2023-04-16T05:04:32.366Z,13.21
2023-04-16T05:07:00.492Z,13.44
2023-04-16T05:09:28.603Z,13.50
2023-04-16T05:11:57.662Z,13.55
2023-04-16T05:14:25.659Z,13.57
2023-04-16T05:16:54.133Z,13.77
2023-04-16T05:19:22.288Z,13.84
2023-04-16T05:21:51.787Z,14.03
2023-04-16T05:24:21.352Z,13.86
2023-04-16T05:26:49.831Z,14.14
2023-04-16T05:29:17.831Z,14.09
2023-04-16T05:31:46.120Z,14.25
2023-04-16T05:34:14.115Z,14.35
2023-04-16T05:36:42.073Z,14.62
2023-04-16T05:39:11.646Z,14.56
2023-04-16T05:41:39.699Z,14.64
2023-04-16T05:44:07.588Z,14.76
2023-04-16T05:46:35.580Z,14.78
2023-04-16T05:49:03.762Z,14.85
2023-04-16T05:51:32.174Z,14.96
2023-04-16T05:54:00.143Z,15.06
2023-04-16T05:56:29.617Z,15.05
2023-04-16T05:58:58.142Z,14.95
2023-04-16T06:01:26.715Z,15.37
2023-04-16T06:03:54.865Z,15.59
2023-04-16T06:06:22.921Z,15.87
2023-04-16T06:08:50.926Z,15.85
2023-04-16T06:11:18.856Z,15.87
2023-04-16T06:13:48.175Z,16.06
2023-04-16T06:16:16.260Z,16.32
2023-04-16T06:18:44.342Z,16.33
2023-04-16T06:21:12.415Z,16.35
2023-04-16T06:23:40.542Z,16.42
2023-04-16T06:26:08.805Z,16.50
2023-04-16T06:28:37.270Z,16.56
2023-04-16T06:31:07.145Z,16.83
2023-04-16T06:33:35.176Z,16.91
2023-04-16T06:36:03.125Z,16.94
2023-04-16T06:38:31.203Z,16.93
2023-04-16T06:40:59.634Z,17.05
2023-04-16T06:43:27.771Z,17.07
2023-04-16T06:45:55.734Z,17.26
2023-04-16T06:48:25.440Z,17.39
2023-04-16T06:50:53.517Z,17.37
2023-04-16T06:53:21.430Z,17.34
2023-04-16T06:55:49.750Z,17.32
2023-04-16T06:58:17.656Z,17.41
2023-04-16T07:00:46.215Z,17.55
2023-04-16T07:03:14.274Z,17.70
2023-04-16T07:05:43.718Z,17.47
2023-04-16T07:08:12.003Z,17.65
2023-04-16T07:10:39.986Z,17.79
2023-04-16T07:13:07.908Z,17.86
2023-04-16T07:15:35.883Z,17.67
2023-04-16T07:18:04.020Z,17.84
2023-04-16T07:20:32.150Z,17.54
2023-04-16T07:23:01.708Z,17.61
2023-04-16T07:25:29.852Z,17.92
2023-04-16T07:27:57.904Z,17.78
2023-04-16T07:30:26.170Z,17.63
2023-04-16T07:32:56.034Z,17.93
2023-04-16T07:35:24.100Z,17.99
2023-04-16T07:37:52.176Z,18.06
2023-04-16T07:40:21.678Z,17.96
2023-04-16T07:42:50.210Z,18.09
2023-04-16T07:45:18.649Z,18.14
2023-04-16T07:47:47.231Z,18.26
2023-04-16T07:50:16.487Z,18.80
2023-04-16T07:52:45.521Z,19.01
2023-04-16T07:55:13.550Z,19.25
2023-04-16T07:57:43.542Z,19.68
2023-04-16T08:00:12.395Z,19.97
2023-04-16T08:02:40.502Z,19.87
2023-04-16T08:05:09.080Z,20.20
2023-04-16T08:07:36.999Z,20.22
2023-04-16T08:10:06.682Z,20.49
2023-04-16T08:12:34.642Z,20.41
2023-04-16T08:15:04.124Z,20.67
2023-04-16T08:17:33.250Z,20.75
2023-04-16T08:20:01.859Z,20.99
2023-04-16T08:22:29.911Z,21.30
2023-04-16T08:24:57.826Z,21.23
2023-04-16T08:27:26.115Z,21.38
2023-04-16T08:29:54.345Z,21.39
2023-04-16T08:32:23.749Z,21.66
2023-04-16T08:34:51.779Z,21.90
2023-04-16T08:37:19.741Z,22.22
2023-04-16T08:39:47.702Z,22.39
2023-04-16T08:42:24.732Z,22.63
2023-04-16T08:45:01.251Z,22.26
2023-04-16T08:47:34.327Z,22.18
2023-04-16T08:50:04.168Z,22.62
2023-04-16T08:52:32.828Z,22.89
2023-04-16T08:55:06.457Z,23.16
2023-04-16T08:57:39.316Z,22.90
2023-04-16T09:00:10.484Z,23.29
2023-04-16T09:02:40.639Z,23.25
2023-04-16T09:05:11.162Z,22.84
2023-04-16T09:07:39.952Z,22.39
2023-04-16T09:10:09.597Z,22.88
2023-04-16T09:12:37.632Z,22.87
2023-04-16T09:15:07.280Z,23.39
2023-04-16T09:17:36.340Z,23.26
2023-04-16T09:20:08.810Z,23.17
2023-04-16T09:22:37.505Z,23.36
2023-04-16T09:25:06.829Z,23.59
2023-04-16T09:27:34.741Z,23.57
2023-04-16T09:30:02.702Z,23.94
2023-04-16T09:32:30.838Z,23.28
2023-04-16T09:34:59.710Z,23.48
2023-04-16T09:37:30.851Z,22.79
2023-04-16T09:40:00.518Z,22.37
2023-04-16T09:42:29.833Z,22.82
2023-04-16T09:45:00.281Z,22.76
2023-04-16T09:47:41.017Z,22.86
2023-04-16T09:50:11.954Z,23.18
2023-04-16T09:52:45.565Z,23.11
2023-04-16T09:55:13.531Z,23.24
2023-04-16T09:57:41.763Z,22.94
2023-04-16T10:00:11.487Z,22.77
2023-04-16T10:02:42.925Z,23.13
2023-04-16T10:05:16.802Z,22.78
2023-04-16T10:07:46.385Z,22.85
2023-04-16T10:10:14.398Z,22.53
2023-04-16T10:12:43.713Z,22.78
2023-04-16T10:15:12.676Z,22.60
2023-04-16T10:17:40.941Z,22.70
2023-04-16T10:20:10.542Z,22.85
2023-04-16T10:22:38.659Z,22.51
2023-04-16T10:25:09.243Z,22.71
2023-04-16T10:27:38.301Z,22.62
2023-04-16T10:30:09.298Z,22.81
2023-04-16T10:32:39.082Z,22.60
2023-04-16T10:35:08.036Z,22.62
2023-04-16T10:37:38.662Z,21.99
2023-04-16T10:40:26.686Z,21.91
2023-04-16T10:42:58.597Z,22.20
2023-04-16T10:45:33.705Z,21.91
2023-04-16T10:48:06.382Z,21.65
2023-04-16T10:50:37.836Z,21.66
2023-04-16T10:53:23.886Z,21.88
2023-04-16T10:56:15.579Z,21.82
2023-04-16T10:58:43.889Z,21.59
2023-04-16T11:01:16.733Z,21.34
2023-04-16T11:03:48.130Z,20.96
2023-04-16T11:06:18.433Z,20.96
2023-04-16T11:08:54.474Z,20.54
2023-04-16T11:11:24.787Z,20.45
2023-04-16T11:13:57.230Z,20.61
2023-04-16T11:16:27.835Z,20.27
2023-04-16T11:18:57.249Z,20.31
2023-04-16T11:21:26.789Z,20.01
2023-04-16T11:23:56.935Z,19.81
2023-04-16T11:26:28.692Z,19.45
2023-04-16T11:28:57.486Z,19.32
2023-04-16T11:31:27.499Z,19.27
2023-04-16T11:33:57.931Z,19.04
2023-04-16T11:36:27.792Z,18.84
2023-04-16T11:39:03.713Z,18.60
2023-04-16T11:41:33.205Z,18.56
2023-04-16T11:44:01.621Z,18.33
2023-04-16T11:46:40.479Z,17.96
2023-04-16T11:49:08.875Z,17.81
2023-04-16T11:51:41.709Z,17.70
2023-04-16T11:54:11.989Z,17.58
2023-04-16T11:56:47.907Z,17.47
2023-04-16T11:59:18.067Z,17.35
2023-04-16T12:01:49.817Z,17.36
2023-04-16T12:04:19.905Z,17.37
2023-04-16T12:07:07.080Z,17.40
2023-04-16T12:09:38.725Z,17.32
2023-04-16T12:12:26.607Z,17.09
2023-04-16T12:14:54.907Z,17.03
2023-04-16T12:17:23.056Z,16.88
2023-04-16T12:19:53.119Z,16.76
2023-04-16T12:22:29.385Z,17.10
2023-04-16T12:24:59.886Z,17.18
2023-04-16T12:27:43.273Z,17.69
2023-04-16T12:30:12.125Z,17.82
2023-04-16T12:32:40.359Z,17.77
2023-04-16T12:35:10.142Z,17.76
2023-04-16T12:37:39.452Z,18.20
2023-04-16T12:40:08.893Z,18.34
2023-04-16T12:42:38.423Z,18.50
2023-04-16T12:45:07.589Z,18.72
2023-04-16T12:47:35.686Z,18.77
2023-04-16T12:50:03.774Z,18.87
2023-04-16T12:52:32.069Z,19.05
2023-04-16T12:55:00.089Z,19.00
2023-04-16T12:57:28.941Z,19.05
2023-04-16T12:59:59.255Z,19.32
2023-04-16T13:02:27.820Z,19.74
2023-04-16T13:04:55.991Z,19.69
2023-04-16T13:07:24.278Z,19.80
2023-04-16T13:09:52.680Z,19.85
2023-04-16T13:12:21.082Z,19.80
2023-04-16T13:14:49.208Z,19.91
2023-04-16T13:17:18.617Z,19.96
2023-04-16T13:19:46.640Z,20.01
2023-04-16T13:22:14.739Z,19.95
2023-04-16T13:24:42.826Z,19.91
2023-04-16T13:27:11.607Z,19.94
2023-04-16T13:29:39.860Z,20.09
2023-04-16T13:32:08.674Z,19.92
2023-04-16T13:34:38.325Z,18.96
2023-04-16T13:37:06.456Z,17.97
2023-04-16T13:39:35.003Z,17.48
2023-04-16T13:42:03.260Z,17.50
2023-04-16T13:44:31.283Z,17.12
2023-04-16T13:46:59.803Z,17.09
2023-04-16T13:49:28.386Z,17.06
2023-04-16T13:51:57.854Z,17.30
2023-04-16T13:54:25.839Z,17.31
2023-04-16T13:56:54.047Z,17.02
2023-04-16T13:59:22.253Z,17.65
2023-04-16T14:01:50.398Z,17.72
2023-04-16T14:04:18.782Z,18.00
2023-04-16T14:06:46.794Z,18.04
2023-04-16T14:09:16.264Z,18.38
2023-04-16T14:11:44.439Z,18.63
2023-04-16T14:14:12.880Z,18.67
2023-04-16T14:16:41.110Z,18.65
2023-04-16T14:19:09.689Z,18.59
2023-04-16T14:21:37.897Z,18.45
2023-04-16T14:24:06.248Z,18.12
2023-04-16T14:26:35.572Z,17.69
2023-04-16T14:29:03.540Z,17.44
2023-04-16T14:31:32.436Z,17.61
2023-04-16T14:34:00.982Z,17.73
2023-04-16T14:36:28.969Z,17.45
2023-04-16T14:38:56.965Z,17.61
2023-04-16T14:41:24.888Z,17.54
2023-04-16T14:43:54.255Z,17.41
2023-04-16T14:46:22.272Z,17.31
2023-04-16T14:48:50.335Z,17.34
2023-04-16T14:51:18.270Z,17.26
2023-04-16T14:53:46.289Z,17.30
2023-04-16T14:56:14.688Z,17.21
2023-04-16T14:58:43.022Z,17.21
2023-04-16T15:01:14.108Z,17.25
2023-04-16T15:03:43.215Z,17.17
2023-04-16T15:06:11.615Z,16.73
2023-04-16T15:08:39.615Z,16.68
2023-04-16T15:11:07.538Z,16.27
2023-04-16T15:13:35.483Z,16.24
2023-04-16T15:16:04.506Z,16.18
2023-04-16T15:18:34.331Z,16.27
2023-04-16T15:21:02.259Z,16.38
2023-04-16T15:23:30.249Z,16.34
2023-04-16T15:25:58.227Z,16.14
2023-04-16T15:28:26.247Z,16.07
2023-04-16T15:30:54.408Z,16.14
2023-04-16T15:33:22.639Z,16.15
2023-04-16T15:35:52.574Z,15.98
2023-04-16T15:38:22.008Z,15.76
2023-04-16T15:40:50.007Z,15.81
2023-04-16T15:43:18.016Z,15.64
2023-04-16T15:45:45.995Z,15.82
2023-04-16T15:48:14.384Z,15.82
2023-04-16T15:50:42.521Z,15.85
2023-04-16T15:53:12.937Z,15.64
2023-04-16T15:55:40.928Z,15.31
2023-04-16T15:58:08.984Z,14.98
2023-04-16T16:00:37.034Z,14.89
2023-04-16T16:03:05.235Z,14.83
2023-04-16T16:05:33.403Z,15.02
2023-04-16T16:08:01.965Z,14.85
2023-04-16T16:10:31.809Z,14.75
2023-04-16T16:13:05.441Z,14.65
2023-04-16T16:15:33.456Z,14.69
2023-04-16T16:18:01.887Z,14.46
2023-04-16T16:20:30.067Z,14.44
2023-04-16T16:22:58.152Z,14.47
2023-04-16T16:25:26.097Z,14.37
2023-04-16T16:27:55.492Z,14.35
2023-04-16T16:30:23.583Z,14.46
2023-04-16T16:32:51.588Z,14.43
2023-04-16T16:35:19.884Z,14.43
2023-04-16T16:37:47.901Z,14.46
2023-04-16T16:40:16.237Z,14.27
2023-04-16T16:42:44.287Z,14.24
2023-04-16T16:45:13.841Z,14.41
2023-04-16T16:47:41.928Z,14.31
2023-04-16T16:50:11.505Z,14.39
2023-04-16T16:52:39.637Z,14.31
2023-04-16T16:55:11.008Z,14.08
2023-04-16T16:57:39.421Z,14.18
2023-04-16T17:00:14.383Z,14.21
2023-04-16T17:02:44.150Z,14.05
2023-04-16T17:05:12.609Z,14.07
2023-04-16T17:07:40.819Z,13.99
2023-04-16T17:10:11.289Z,14.16
2023-04-16T17:12:39.200Z,14.00
2023-04-16T17:15:08.154Z,13.99
2023-04-16T17:17:36.557Z,13.82
2023-04-16T17:20:09.807Z,13.85
2023-04-16T17:22:38.896Z,13.87
2023-04-16T17:25:08.359Z,13.91
2023-04-16T17:27:36.622Z,13.94
2023-04-16T17:30:05.936Z,14.08
2023-04-16T17:32:34.456Z,13.90
2023-04-16T17:35:04.242Z,13.99
2023-04-16T17:37:34.312Z,13.85
2023-04-16T17:40:06.455Z,14.09
2023-04-16T17:42:34.734Z,14.02
2023-04-16T17:45:02.696Z,13.90
2023-04-16T17:47:30.764Z,13.92
2023-04-16T17:49:58.736Z,13.95
2023-04-16T17:52:26.695Z,13.92
2023-04-16T17:55:01.351Z,13.81
2023-04-16T17:57:29.759Z,13.68
2023-04-16T17:59:58.065Z,13.78
2023-04-16T18:02:26.179Z,13.79
2023-04-16T18:04:54.361Z,13.70
2023-04-16T18:07:22.413Z,13.73
2023-04-16T18:09:50.364Z,13.56
2023-04-16T18:12:19.893Z,13.81
2023-04-16T18:14:47.818Z,13.81
2023-04-16T18:17:15.868Z,13.50
2023-04-16T18:19:44.549Z,13.65
2023-04-16T18:22:13.317Z,13.74
2023-04-16T18:24:41.294Z,13.74
2023-04-16T18:27:09.371Z,13.72
2023-04-16T18:29:40.202Z,13.32
2023-04-16T18:32:11.805Z,13.38
2023-04-16T18:34:40.383Z,13.43
2023-04-16T18:37:08.416Z,13.50
2023-04-16T18:39:36.792Z,13.39
2023-04-16T18:42:05.249Z,13.34
2023-04-16T18:44:33.340Z,13.45
2023-04-16T18:47:02.789Z,13.42
2023-04-16T18:49:30.814Z,13.53
2023-04-16T18:51:58.702Z,13.45
2023-04-16T18:54:27.776Z,13.37
2023-04-16T18:56:57.062Z,13.37
2023-04-16T18:59:25.947Z,13.39
2023-04-16T19:01:53.972Z,13.23
2023-04-16T19:04:23.323Z,13.39
2023-04-16T19:06:51.294Z,13.50
2023-04-16T19:09:19.955Z,13.42
2023-04-16T19:11:50.565Z,13.31
2023-04-16T19:14:18.636Z,13.22
2023-04-16T19:16:47.365Z,13.34
2023-04-16T19:19:15.522Z,13.38
2023-04-16T19:21:44.851Z,13.42
2023-04-16T19:24:12.783Z,13.45
2023-04-16T19:26:40.664Z,13.50
2023-04-16T19:29:08.827Z,13.49
2023-04-16T19:31:37.167Z,13.52
2023-04-16T19:34:05.149Z,13.39
2023-04-16T19:36:33.350Z,13.56
2023-04-16T19:39:02.670Z,13.67
2023-04-16T19:41:30.589Z,13.38
2023-04-16T19:43:58.498Z,13.50
2023-04-16T19:46:26.404Z,13.49
2023-04-16T19:48:54.344Z,13.57
2023-04-16T19:51:22.232Z,13.55
2023-04-16T19:53:50.240Z,13.60
2023-04-16T19:56:19.529Z,13.33
2023-04-16T19:58:47.455Z,13.36
2023-04-16T20:01:15.493Z,13.10
2023-04-16T20:03:43.501Z,12.93
2023-04-16T20:06:11.489Z,12.78
2023-04-16T20:08:39.410Z,12.76
2023-04-16T20:11:08.674Z,12.69
2023-04-16T20:13:38.939Z,12.67
2023-04-16T20:16:09.339Z,12.65
2023-04-16T20:18:41.355Z,12.45
2023-04-16T20:21:09.679Z,12.32
2023-04-16T20:23:37.589Z,12.19
2023-04-16T20:26:05.609Z,12.06
2023-04-16T20:28:33.636Z,12.10
2023-04-16T20:31:02.974Z,12.08
2023-04-16T20:33:30.895Z,11.96
2023-04-16T20:35:58.842Z,12.07
2023-04-16T20:38:29.660Z,12.04
2023-04-16T20:41:06.496Z,11.91
2023-04-16T20:43:38.613Z,11.95
2023-04-16T20:46:08.484Z,11.98
2023-04-16T20:48:36.589Z,12.08
2023-04-16T20:51:05.604Z,12.07
2023-04-16T20:53:34.193Z,11.87
2023-04-16T20:56:02.137Z,11.96
2023-04-16T20:58:30.233Z,11.80
2023-04-16T21:00:58.719Z,11.58
2023-04-16T21:03:28.177Z,11.58
2023-04-16T21:05:56.777Z,11.60
2023-04-16T21:08:25.595Z,11.79
2023-04-16T21:10:53.565Z,11.87
2023-04-16T21:13:21.928Z,11.83
2023-04-16T21:15:49.894Z,11.88
2023-04-16T21:18:18.640Z,11.63
2023-04-16T21:20:47.935Z,11.50
2023-04-16T21:23:15.928Z,11.50
2023-04-16T21:25:43.844Z,11.64
2023-04-16T21:28:11.749Z,11.36
2023-04-16T21:30:39.698Z,11.07
2023-04-16T21:33:08.054Z,11.30
2023-04-16T21:35:35.968Z,11.17
2023-04-16T21:38:05.276Z,10.91
2023-04-16T21:40:33.339Z,10.99
2023-04-16T21:43:01.224Z,10.94
2023-04-16T21:45:30.503Z,11.06
2023-04-16T21:47:58.666Z,11.08
2023-04-16T21:50:26.772Z,11.02
2023-04-16T21:52:54.896Z,11.05
2023-04-16T21:55:24.682Z,11.10
2023-04-16T21:57:52.635Z,11.28
2023-04-16T22:00:21.334Z,11.11
2023-04-16T22:02:49.402Z,11.24
2023-04-16T22:05:17.716Z,11.13
2023-04-16T22:07:45.722Z,10.92
2023-04-16T22:10:15.143Z,10.92
2023-04-16T22:12:45.849Z,11.06
2023-04-16T22:15:14.504Z,10.84
2023-04-16T22:17:42.485Z,10.82
2023-04-16T22:20:13.123Z,10.75
2023-04-16T22:22:41.322Z,10.94
2023-04-16T22:25:09.885Z,11.09
2023-04-16T22:27:38.045Z,11.11
2023-04-16T22:30:09.271Z,10.99
2023-04-16T22:32:37.250Z,11.07
2023-04-16T22:35:05.596Z,11.09
2023-04-16T22:37:33.616Z,10.95
2023-04-16T22:40:01.630Z,10.93
2023-04-16T22:42:29.721Z,11.02
2023-04-16T22:44:57.686Z,10.85
2023-04-16T22:47:27.086Z,10.78
2023-04-16T22:49:55.011Z,10.47
2023-04-16T22:52:22.929Z,10.58
2023-04-16T22:54:51.026Z,10.51
2023-04-16T22:57:21.196Z,10.55
2023-04-16T22:59:49.158Z,10.56
2023-04-16T23:02:17.473Z,10.73
2023-04-16T23:04:47.986Z,10.58
2023-04-16T23:07:16.312Z,10.47
2023-04-16T23:09:44.205Z,10.60
2023-04-16T23:12:12.170Z,10.61
2023-04-16T23:14:40.096Z,10.63
2023-04-16T23:17:09.128Z,10.67
2023-04-16T23:19:37.045Z,10.73
2023-04-16T23:22:06.351Z,10.80
2023-04-16T23:24:34.280Z,10.80
2023-04-16T23:27:02.835Z,10.54
2023-04-16T23:29:30.756Z,10.68
2023-04-16T23:31:58.832Z,10.83
2023-04-16T23:34:26.846Z,10.77
2023-04-16T23:36:54.771Z,10.73
2023-04-16T23:39:24.072Z,10.72
2023-04-16T23:41:52.044Z,10.83
2023-04-16T23:44:19.993Z,10.74
2023-04-16T23:46:47.997Z,10.76
2023-04-16T23:49:16.309Z,10.76
2023-04-16T23:51:44.232Z,10.86
2023-04-16T23:54:12.132Z,10.71
2023-04-16T23:56:41.500Z,10.55
2023-04-16T23:59:10.981Z,10.57
